<?xml version="1.0" encoding="UTF-8" standalone="no" ?>
<gpx xmlns="http://www.topografix.com/GPX/1/1" xmlns:xsi="http://www.w3.org/2001/XMLSchema-instance" xsi:schemaLocation="http://www.topografix.com/GPX/1/1 http://www.topografix.com/GPX/1/1/gpx.xsd" version="1.1" creator="VisuGPX - https://www.visugpx.com">
  <metadata>
    <name>83 - M - Séranon</name>
    <desc><![CDATA[83 - SERANON - le vieux village, Les crêtes de Bauroux, le village de Caille]]></desc>
  </metadata>
  <wpt lat="43.77434" lon="6.70377">
    <ele>1183</ele>
    <name><![CDATA[Point de passage 1]]></name>
    <type><![CDATA[GENERIC]]></type>
  </wpt>
  <wpt lat="43.77434" lon="6.70435">
    <ele>1175</ele>
    <name><![CDATA[Point de passage 2]]></name>
    <type><![CDATA[GENERIC]]></type>
  </wpt>
  <trk>
    <name><![CDATA[Randonnée du 11/06/2025 à 09:15]]></name>
    <trkseg>
      <trkpt lat="43.77434" lon="6.70377">
        <ele>1183</ele>
        <time>2025-06-11T07:15:58.000Z</time>
      </trkpt>
      <trkpt lat="43.77433" lon="6.7037">
        <ele>1184</ele>
        <time>2025-06-11T07:16:03.000Z</time>
      </trkpt>
      <trkpt lat="43.7745" lon="6.70356">
        <ele>1183</ele>
        <time>2025-06-11T07:17:38.000Z</time>
      </trkpt>
      <trkpt lat="43.77462" lon="6.70329">
        <ele>1182</ele>
        <time>2025-06-11T07:17:59.000Z</time>
      </trkpt>
      <trkpt lat="43.77471" lon="6.70298">
        <ele>1183</ele>
        <time>2025-06-11T07:18:20.000Z</time>
      </trkpt>
      <trkpt lat="43.77479" lon="6.70266">
        <ele>1183</ele>
        <time>2025-06-11T07:18:47.000Z</time>
      </trkpt>
      <trkpt lat="43.77483" lon="6.70234">
        <ele>1182</ele>
        <time>2025-06-11T07:19:08.000Z</time>
      </trkpt>
      <trkpt lat="43.77486" lon="6.70201">
        <ele>1182</ele>
        <time>2025-06-11T07:19:29.000Z</time>
      </trkpt>
      <trkpt lat="43.77489" lon="6.70166">
        <ele>1181</ele>
        <time>2025-06-11T07:19:53.000Z</time>
      </trkpt>
      <trkpt lat="43.77491" lon="6.70131">
        <ele>1181</ele>
        <time>2025-06-11T07:20:17.000Z</time>
      </trkpt>
      <trkpt lat="43.7749" lon="6.70097">
        <ele>1180</ele>
        <time>2025-06-11T07:20:38.000Z</time>
      </trkpt>
      <trkpt lat="43.77489" lon="6.70066">
        <ele>1180</ele>
        <time>2025-06-11T07:26:20.000Z</time>
      </trkpt>
      <trkpt lat="43.7749" lon="6.70035">
        <ele>1180</ele>
        <time>2025-06-11T07:26:59.000Z</time>
      </trkpt>
      <trkpt lat="43.77495" lon="6.70003">
        <ele>1180</ele>
        <time>2025-06-11T07:27:23.000Z</time>
      </trkpt>
      <trkpt lat="43.77497" lon="6.69969">
        <ele>1179</ele>
        <time>2025-06-11T07:27:50.000Z</time>
      </trkpt>
      <trkpt lat="43.775" lon="6.69936">
        <ele>1179</ele>
        <time>2025-06-11T07:28:14.000Z</time>
      </trkpt>
      <trkpt lat="43.77502" lon="6.69903">
        <ele>1179</ele>
        <time>2025-06-11T07:28:32.000Z</time>
      </trkpt>
      <trkpt lat="43.77508" lon="6.6987">
        <ele>1179</ele>
        <time>2025-06-11T07:28:53.000Z</time>
      </trkpt>
      <trkpt lat="43.77516" lon="6.69838">
        <ele>1179</ele>
        <time>2025-06-11T07:29:14.000Z</time>
      </trkpt>
      <trkpt lat="43.77525" lon="6.69807">
        <ele>1181</ele>
        <time>2025-06-11T07:29:35.000Z</time>
      </trkpt>
      <trkpt lat="43.77534" lon="6.69777">
        <ele>1182</ele>
        <time>2025-06-11T07:29:56.000Z</time>
      </trkpt>
      <trkpt lat="43.7755" lon="6.69753">
        <ele>1183</ele>
        <time>2025-06-11T07:30:17.000Z</time>
      </trkpt>
      <trkpt lat="43.77563" lon="6.69726">
        <ele>1185</ele>
        <time>2025-06-11T07:30:35.000Z</time>
      </trkpt>
      <trkpt lat="43.77576" lon="6.69697">
        <ele>1187</ele>
        <time>2025-06-11T07:30:59.000Z</time>
      </trkpt>
      <trkpt lat="43.77581" lon="6.69665">
        <ele>1189</ele>
        <time>2025-06-11T07:31:17.000Z</time>
      </trkpt>
      <trkpt lat="43.77578" lon="6.69634">
        <ele>1190</ele>
        <time>2025-06-11T07:31:38.000Z</time>
      </trkpt>
      <trkpt lat="43.77578" lon="6.69602">
        <ele>1192</ele>
        <time>2025-06-11T07:31:59.000Z</time>
      </trkpt>
      <trkpt lat="43.77582" lon="6.69572">
        <ele>1194</ele>
        <time>2025-06-11T07:32:32.000Z</time>
      </trkpt>
      <trkpt lat="43.77585" lon="6.6954">
        <ele>1195</ele>
        <time>2025-06-11T07:32:53.000Z</time>
      </trkpt>
      <trkpt lat="43.77589" lon="6.69506">
        <ele>1197</ele>
        <time>2025-06-11T07:33:14.000Z</time>
      </trkpt>
      <trkpt lat="43.77597" lon="6.69474">
        <ele>1198</ele>
        <time>2025-06-11T07:33:35.000Z</time>
      </trkpt>
      <trkpt lat="43.7761" lon="6.69447">
        <ele>1200</ele>
        <time>2025-06-11T07:33:56.000Z</time>
      </trkpt>
      <trkpt lat="43.77622" lon="6.6942">
        <ele>1200</ele>
        <time>2025-06-11T07:34:29.000Z</time>
      </trkpt>
      <trkpt lat="43.77627" lon="6.69389">
        <ele>1201</ele>
        <time>2025-06-11T07:34:50.000Z</time>
      </trkpt>
      <trkpt lat="43.7763" lon="6.69358">
        <ele>1202</ele>
        <time>2025-06-11T07:35:11.000Z</time>
      </trkpt>
      <trkpt lat="43.77626" lon="6.69327">
        <ele>1202</ele>
        <time>2025-06-11T07:35:59.000Z</time>
      </trkpt>
      <trkpt lat="43.77624" lon="6.69295">
        <ele>1203</ele>
        <time>2025-06-11T07:36:20.000Z</time>
      </trkpt>
      <trkpt lat="43.77633" lon="6.69265">
        <ele>1204</ele>
        <time>2025-06-11T07:36:59.000Z</time>
      </trkpt>
      <trkpt lat="43.77638" lon="6.69233">
        <ele>1205</ele>
        <time>2025-06-11T07:37:23.000Z</time>
      </trkpt>
      <trkpt lat="43.77649" lon="6.69203">
        <ele>1206</ele>
        <time>2025-06-11T07:37:44.000Z</time>
      </trkpt>
      <trkpt lat="43.77659" lon="6.69173">
        <ele>1207</ele>
        <time>2025-06-11T07:38:02.000Z</time>
      </trkpt>
      <trkpt lat="43.77666" lon="6.69141">
        <ele>1208</ele>
        <time>2025-06-11T07:38:23.000Z</time>
      </trkpt>
      <trkpt lat="43.77673" lon="6.69108">
        <ele>1208</ele>
        <time>2025-06-11T07:38:44.000Z</time>
      </trkpt>
      <trkpt lat="43.77674" lon="6.69077">
        <ele>1209</ele>
        <time>2025-06-11T07:39:02.000Z</time>
      </trkpt>
      <trkpt lat="43.77671" lon="6.69047">
        <ele>1210</ele>
        <time>2025-06-11T07:39:20.000Z</time>
      </trkpt>
      <trkpt lat="43.77672" lon="6.69017">
        <ele>1211</ele>
        <time>2025-06-11T07:39:38.000Z</time>
      </trkpt>
      <trkpt lat="43.77677" lon="6.68985">
        <ele>1213</ele>
        <time>2025-06-11T07:39:59.000Z</time>
      </trkpt>
      <trkpt lat="43.77684" lon="6.68953">
        <ele>1214</ele>
        <time>2025-06-11T07:40:20.000Z</time>
      </trkpt>
      <trkpt lat="43.77688" lon="6.68921">
        <ele>1216</ele>
        <time>2025-06-11T07:40:41.000Z</time>
      </trkpt>
      <trkpt lat="43.77691" lon="6.68889">
        <ele>1217</ele>
        <time>2025-06-11T07:41:02.000Z</time>
      </trkpt>
      <trkpt lat="43.77691" lon="6.68856">
        <ele>1220</ele>
        <time>2025-06-11T07:41:23.000Z</time>
      </trkpt>
      <trkpt lat="43.77693" lon="6.68824">
        <ele>1221</ele>
        <time>2025-06-11T07:41:44.000Z</time>
      </trkpt>
      <trkpt lat="43.77693" lon="6.68792">
        <ele>1224</ele>
        <time>2025-06-11T07:42:08.000Z</time>
      </trkpt>
      <trkpt lat="43.77686" lon="6.68761">
        <ele>1226</ele>
        <time>2025-06-11T07:42:29.000Z</time>
      </trkpt>
      <trkpt lat="43.77682" lon="6.68729">
        <ele>1229</ele>
        <time>2025-06-11T07:42:53.000Z</time>
      </trkpt>
      <trkpt lat="43.77679" lon="6.68698">
        <ele>1232</ele>
        <time>2025-06-11T07:43:14.000Z</time>
      </trkpt>
      <trkpt lat="43.77683" lon="6.68666">
        <ele>1235</ele>
        <time>2025-06-11T07:43:38.000Z</time>
      </trkpt>
      <trkpt lat="43.77684" lon="6.68634">
        <ele>1239</ele>
        <time>2025-06-11T07:44:02.000Z</time>
      </trkpt>
      <trkpt lat="43.7768" lon="6.686">
        <ele>1243</ele>
        <time>2025-06-11T07:44:26.000Z</time>
      </trkpt>
      <trkpt lat="43.77681" lon="6.68569">
        <ele>1245</ele>
        <time>2025-06-11T07:46:02.000Z</time>
      </trkpt>
      <trkpt lat="43.77675" lon="6.68537">
        <ele>1248</ele>
        <time>2025-06-11T07:46:23.000Z</time>
      </trkpt>
      <trkpt lat="43.77665" lon="6.6851">
        <ele>1249</ele>
        <time>2025-06-11T07:46:44.000Z</time>
      </trkpt>
      <trkpt lat="43.77662" lon="6.68477">
        <ele>1250</ele>
        <time>2025-06-11T07:47:05.000Z</time>
      </trkpt>
      <trkpt lat="43.77667" lon="6.68443">
        <ele>1250</ele>
        <time>2025-06-11T07:49:20.000Z</time>
      </trkpt>
      <trkpt lat="43.77668" lon="6.6841">
        <ele>1249</ele>
        <time>2025-06-11T07:49:41.000Z</time>
      </trkpt>
      <trkpt lat="43.77667" lon="6.68379">
        <ele>1248</ele>
        <time>2025-06-11T07:49:59.000Z</time>
      </trkpt>
      <trkpt lat="43.77665" lon="6.68347">
        <ele>1247</ele>
        <time>2025-06-11T07:50:20.000Z</time>
      </trkpt>
      <trkpt lat="43.77659" lon="6.68316">
        <ele>1247</ele>
        <time>2025-06-11T07:50:38.000Z</time>
      </trkpt>
      <trkpt lat="43.77661" lon="6.68286">
        <ele>1249</ele>
        <time>2025-06-11T07:52:28.000Z</time>
      </trkpt>
      <trkpt lat="43.77655" lon="6.68257">
        <ele>1251</ele>
        <time>2025-06-11T07:53:05.000Z</time>
      </trkpt>
      <trkpt lat="43.77653" lon="6.68223">
        <ele>1253</ele>
        <time>2025-06-11T07:53:29.000Z</time>
      </trkpt>
      <trkpt lat="43.77648" lon="6.68192">
        <ele>1256</ele>
        <time>2025-06-11T07:53:56.000Z</time>
      </trkpt>
      <trkpt lat="43.77646" lon="6.68161">
        <ele>1259</ele>
        <time>2025-06-11T07:54:20.000Z</time>
      </trkpt>
      <trkpt lat="43.77643" lon="6.68128">
        <ele>1261</ele>
        <time>2025-06-11T07:54:50.000Z</time>
      </trkpt>
      <trkpt lat="43.77641" lon="6.68095">
        <ele>1263</ele>
        <time>2025-06-11T07:55:14.000Z</time>
      </trkpt>
      <trkpt lat="43.77637" lon="6.68065">
        <ele>1264</ele>
        <time>2025-06-11T07:55:53.000Z</time>
      </trkpt>
      <trkpt lat="43.77632" lon="6.68035">
        <ele>1265</ele>
        <time>2025-06-11T07:56:14.000Z</time>
      </trkpt>
      <trkpt lat="43.77627" lon="6.68004">
        <ele>1265</ele>
        <time>2025-06-11T07:56:44.000Z</time>
      </trkpt>
      <trkpt lat="43.77615" lon="6.67976">
        <ele>1265</ele>
        <time>2025-06-11T07:57:20.000Z</time>
      </trkpt>
      <trkpt lat="43.77605" lon="6.67944">
        <ele>1265</ele>
        <time>2025-06-11T07:57:53.000Z</time>
      </trkpt>
      <trkpt lat="43.77597" lon="6.67921">
        <ele>1266</ele>
        <time>2025-06-11T07:58:23.000Z</time>
      </trkpt>
      <trkpt lat="43.77608" lon="6.67939">
        <ele>1268</ele>
        <time>2025-06-11T08:03:05.000Z</time>
      </trkpt>
      <trkpt lat="43.77616" lon="6.67969">
        <ele>1272</ele>
        <time>2025-06-11T08:04:08.000Z</time>
      </trkpt>
      <trkpt lat="43.77628" lon="6.6799">
        <ele>1276</ele>
        <time>2025-06-11T08:04:41.000Z</time>
      </trkpt>
      <trkpt lat="43.77634" lon="6.67967">
        <ele>1281</ele>
        <time>2025-06-11T08:05:41.000Z</time>
      </trkpt>
      <trkpt lat="43.77638" lon="6.67935">
        <ele>1285</ele>
        <time>2025-06-11T08:06:59.000Z</time>
      </trkpt>
      <trkpt lat="43.77636" lon="6.67903">
        <ele>1290</ele>
        <time>2025-06-11T08:07:35.000Z</time>
      </trkpt>
      <trkpt lat="43.77642" lon="6.67877">
        <ele>1296</ele>
        <time>2025-06-11T08:08:44.000Z</time>
      </trkpt>
      <trkpt lat="43.7766" lon="6.67887">
        <ele>1301</ele>
        <time>2025-06-11T08:09:44.000Z</time>
      </trkpt>
      <trkpt lat="43.77674" lon="6.67912">
        <ele>1307</ele>
        <time>2025-06-11T08:10:17.000Z</time>
      </trkpt>
      <trkpt lat="43.77687" lon="6.6794">
        <ele>1314</ele>
        <time>2025-06-11T08:18:47.000Z</time>
      </trkpt>
      <trkpt lat="43.77701" lon="6.67965">
        <ele>1320</ele>
        <time>2025-06-11T08:19:41.000Z</time>
      </trkpt>
      <trkpt lat="43.77711" lon="6.67992">
        <ele>1325</ele>
        <time>2025-06-11T08:20:26.000Z</time>
      </trkpt>
      <trkpt lat="43.77728" lon="6.68008">
        <ele>1330</ele>
        <time>2025-06-11T08:21:35.000Z</time>
      </trkpt>
      <trkpt lat="43.77745" lon="6.68002">
        <ele>1335</ele>
        <time>2025-06-11T08:22:26.000Z</time>
      </trkpt>
      <trkpt lat="43.77751" lon="6.68018">
        <ele>1339</ele>
        <time>2025-06-11T08:26:35.000Z</time>
      </trkpt>
      <trkpt lat="43.77752" lon="6.67993">
        <ele>1343</ele>
        <time>2025-06-11T08:27:38.000Z</time>
      </trkpt>
      <trkpt lat="43.77747" lon="6.67962">
        <ele>1345</ele>
        <time>2025-06-11T08:28:05.000Z</time>
      </trkpt>
      <trkpt lat="43.77737" lon="6.67935">
        <ele>1346</ele>
        <time>2025-06-11T08:29:47.000Z</time>
      </trkpt>
      <trkpt lat="43.77725" lon="6.67919">
        <ele>1346</ele>
        <time>2025-06-11T08:30:44.000Z</time>
      </trkpt>
      <trkpt lat="43.77738" lon="6.67933">
        <ele>1345</ele>
        <time>2025-06-11T08:38:44.000Z</time>
      </trkpt>
      <trkpt lat="43.77751" lon="6.67958">
        <ele>1344</ele>
        <time>2025-06-11T08:40:17.000Z</time>
      </trkpt>
      <trkpt lat="43.77755" lon="6.67987">
        <ele>1342</ele>
        <time>2025-06-11T08:40:56.000Z</time>
      </trkpt>
      <trkpt lat="43.77773" lon="6.67981">
        <ele>1341</ele>
        <time>2025-06-11T08:44:44.000Z</time>
      </trkpt>
      <trkpt lat="43.77795" lon="6.67985">
        <ele>1341</ele>
        <time>2025-06-11T08:45:35.000Z</time>
      </trkpt>
      <trkpt lat="43.7781" lon="6.68007">
        <ele>1340</ele>
        <time>2025-06-11T08:46:35.000Z</time>
      </trkpt>
      <trkpt lat="43.77827" lon="6.6803">
        <ele>1340</ele>
        <time>2025-06-11T08:46:59.000Z</time>
      </trkpt>
      <trkpt lat="43.77845" lon="6.6805">
        <ele>1340</ele>
        <time>2025-06-11T08:47:26.000Z</time>
      </trkpt>
      <trkpt lat="43.77862" lon="6.68076">
        <ele>1340</ele>
        <time>2025-06-11T08:47:50.000Z</time>
      </trkpt>
      <trkpt lat="43.77876" lon="6.68101">
        <ele>1340</ele>
        <time>2025-06-11T08:48:14.000Z</time>
      </trkpt>
      <trkpt lat="43.77891" lon="6.68124">
        <ele>1339</ele>
        <time>2025-06-11T08:48:38.000Z</time>
      </trkpt>
      <trkpt lat="43.77905" lon="6.6815">
        <ele>1339</ele>
        <time>2025-06-11T08:49:23.000Z</time>
      </trkpt>
      <trkpt lat="43.77924" lon="6.6817">
        <ele>1338</ele>
        <time>2025-06-11T08:49:47.000Z</time>
      </trkpt>
      <trkpt lat="43.77944" lon="6.68187">
        <ele>1337</ele>
        <time>2025-06-11T08:50:14.000Z</time>
      </trkpt>
      <trkpt lat="43.77963" lon="6.68205">
        <ele>1337</ele>
        <time>2025-06-11T08:50:47.000Z</time>
      </trkpt>
      <trkpt lat="43.77979" lon="6.68227">
        <ele>1338</ele>
        <time>2025-06-11T08:51:20.000Z</time>
      </trkpt>
      <trkpt lat="43.77995" lon="6.6825">
        <ele>1340</ele>
        <time>2025-06-11T08:51:47.000Z</time>
      </trkpt>
      <trkpt lat="43.78007" lon="6.68277">
        <ele>1342</ele>
        <time>2025-06-11T08:52:14.000Z</time>
      </trkpt>
      <trkpt lat="43.7801" lon="6.68307">
        <ele>1344</ele>
        <time>2025-06-11T08:52:44.000Z</time>
      </trkpt>
      <trkpt lat="43.78009" lon="6.68338">
        <ele>1346</ele>
        <time>2025-06-11T08:53:11.000Z</time>
      </trkpt>
      <trkpt lat="43.78006" lon="6.6837">
        <ele>1348</ele>
        <time>2025-06-11T08:53:38.000Z</time>
      </trkpt>
      <trkpt lat="43.78005" lon="6.68403">
        <ele>1350</ele>
        <time>2025-06-11T08:54:05.000Z</time>
      </trkpt>
      <trkpt lat="43.78005" lon="6.68435">
        <ele>1352</ele>
        <time>2025-06-11T08:54:32.000Z</time>
      </trkpt>
      <trkpt lat="43.78008" lon="6.68467">
        <ele>1355</ele>
        <time>2025-06-11T08:54:59.000Z</time>
      </trkpt>
      <trkpt lat="43.78009" lon="6.68499">
        <ele>1358</ele>
        <time>2025-06-11T08:55:23.000Z</time>
      </trkpt>
      <trkpt lat="43.78013" lon="6.68531">
        <ele>1361</ele>
        <time>2025-06-11T08:55:47.000Z</time>
      </trkpt>
      <trkpt lat="43.78018" lon="6.68562">
        <ele>1365</ele>
        <time>2025-06-11T08:56:17.000Z</time>
      </trkpt>
      <trkpt lat="43.78025" lon="6.68593">
        <ele>1368</ele>
        <time>2025-06-11T08:56:56.000Z</time>
      </trkpt>
      <trkpt lat="43.78033" lon="6.68625">
        <ele>1372</ele>
        <time>2025-06-11T08:57:35.000Z</time>
      </trkpt>
      <trkpt lat="43.7804" lon="6.68655">
        <ele>1376</ele>
        <time>2025-06-11T08:57:59.000Z</time>
      </trkpt>
      <trkpt lat="43.7804" lon="6.68686">
        <ele>1379</ele>
        <time>2025-06-11T08:58:26.000Z</time>
      </trkpt>
      <trkpt lat="43.78037" lon="6.6872">
        <ele>1383</ele>
        <time>2025-06-11T08:59:08.000Z</time>
      </trkpt>
      <trkpt lat="43.78029" lon="6.6875">
        <ele>1386</ele>
        <time>2025-06-11T08:59:56.000Z</time>
      </trkpt>
      <trkpt lat="43.78023" lon="6.68781">
        <ele>1390</ele>
        <time>2025-06-11T09:00:29.000Z</time>
      </trkpt>
      <trkpt lat="43.78024" lon="6.68812">
        <ele>1394</ele>
        <time>2025-06-11T09:00:56.000Z</time>
      </trkpt>
      <trkpt lat="43.78025" lon="6.68843">
        <ele>1398</ele>
        <time>2025-06-11T09:01:23.000Z</time>
      </trkpt>
      <trkpt lat="43.78022" lon="6.68874">
        <ele>1401</ele>
        <time>2025-06-11T09:01:53.000Z</time>
      </trkpt>
      <trkpt lat="43.78014" lon="6.68903">
        <ele>1404</ele>
        <time>2025-06-11T09:02:32.000Z</time>
      </trkpt>
      <trkpt lat="43.78011" lon="6.68935">
        <ele>1406</ele>
        <time>2025-06-11T09:04:11.000Z</time>
      </trkpt>
      <trkpt lat="43.78014" lon="6.68968">
        <ele>1408</ele>
        <time>2025-06-11T09:04:32.000Z</time>
      </trkpt>
      <trkpt lat="43.78022" lon="6.69001">
        <ele>1410</ele>
        <time>2025-06-11T09:04:56.000Z</time>
      </trkpt>
      <trkpt lat="43.78031" lon="6.69031">
        <ele>1412</ele>
        <time>2025-06-11T09:05:17.000Z</time>
      </trkpt>
      <trkpt lat="43.78037" lon="6.69062">
        <ele>1414</ele>
        <time>2025-06-11T09:05:38.000Z</time>
      </trkpt>
      <trkpt lat="43.78042" lon="6.69095">
        <ele>1415</ele>
        <time>2025-06-11T09:05:59.000Z</time>
      </trkpt>
      <trkpt lat="43.78042" lon="6.69128">
        <ele>1417</ele>
        <time>2025-06-11T09:06:20.000Z</time>
      </trkpt>
      <trkpt lat="43.78035" lon="6.6916">
        <ele>1419</ele>
        <time>2025-06-11T09:06:44.000Z</time>
      </trkpt>
      <trkpt lat="43.78023" lon="6.69186">
        <ele>1421</ele>
        <time>2025-06-11T09:07:11.000Z</time>
      </trkpt>
      <trkpt lat="43.78027" lon="6.69214">
        <ele>1423</ele>
        <time>2025-06-11T09:07:29.000Z</time>
      </trkpt>
      <trkpt lat="43.78032" lon="6.69245">
        <ele>1426</ele>
        <time>2025-06-11T09:07:56.000Z</time>
      </trkpt>
      <trkpt lat="43.78029" lon="6.69277">
        <ele>1427</ele>
        <time>2025-06-11T09:08:24.000Z</time>
      </trkpt>
      <trkpt lat="43.78019" lon="6.69302">
        <ele>1429</ele>
        <time>2025-06-11T09:08:51.000Z</time>
      </trkpt>
      <trkpt lat="43.78005" lon="6.69303">
        <ele>1431</ele>
        <time>2025-06-11T09:10:12.000Z</time>
      </trkpt>
      <trkpt lat="43.78021" lon="6.69312">
        <ele>1435</ele>
        <time>2025-06-11T09:18:30.000Z</time>
      </trkpt>
      <trkpt lat="43.7803" lon="6.6934">
        <ele>1439</ele>
        <time>2025-06-11T09:19:00.000Z</time>
      </trkpt>
      <trkpt lat="43.78036" lon="6.69372">
        <ele>1444</ele>
        <time>2025-06-11T09:19:33.000Z</time>
      </trkpt>
      <trkpt lat="43.78041" lon="6.69403">
        <ele>1449</ele>
        <time>2025-06-11T09:20:09.000Z</time>
      </trkpt>
      <trkpt lat="43.78042" lon="6.69436">
        <ele>1454</ele>
        <time>2025-06-11T09:21:06.000Z</time>
      </trkpt>
      <trkpt lat="43.78043" lon="6.69467">
        <ele>1460</ele>
        <time>2025-06-11T09:21:45.000Z</time>
      </trkpt>
      <trkpt lat="43.78056" lon="6.69491">
        <ele>1465</ele>
        <time>2025-06-11T09:22:24.000Z</time>
      </trkpt>
      <trkpt lat="43.78063" lon="6.6952">
        <ele>1470</ele>
        <time>2025-06-11T09:23:06.000Z</time>
      </trkpt>
      <trkpt lat="43.78067" lon="6.69553">
        <ele>1473</ele>
        <time>2025-06-11T09:23:48.000Z</time>
      </trkpt>
      <trkpt lat="43.78067" lon="6.69587">
        <ele>1476</ele>
        <time>2025-06-11T09:24:30.000Z</time>
      </trkpt>
      <trkpt lat="43.78071" lon="6.69619">
        <ele>1479</ele>
        <time>2025-06-11T09:25:00.000Z</time>
      </trkpt>
      <trkpt lat="43.78076" lon="6.69651">
        <ele>1481</ele>
        <time>2025-06-11T09:25:33.000Z</time>
      </trkpt>
      <trkpt lat="43.78075" lon="6.69685">
        <ele>1483</ele>
        <time>2025-06-11T09:26:00.000Z</time>
      </trkpt>
      <trkpt lat="43.78075" lon="6.69717">
        <ele>1484</ele>
        <time>2025-06-11T09:26:24.000Z</time>
      </trkpt>
      <trkpt lat="43.78079" lon="6.69748">
        <ele>1486</ele>
        <time>2025-06-11T09:26:42.000Z</time>
      </trkpt>
      <trkpt lat="43.78089" lon="6.69777">
        <ele>1488</ele>
        <time>2025-06-11T09:27:06.000Z</time>
      </trkpt>
      <trkpt lat="43.78089" lon="6.69809">
        <ele>1490</ele>
        <time>2025-06-11T09:27:27.000Z</time>
      </trkpt>
      <trkpt lat="43.78083" lon="6.6984">
        <ele>1492</ele>
        <time>2025-06-11T09:27:48.000Z</time>
      </trkpt>
      <trkpt lat="43.78081" lon="6.69873">
        <ele>1493</ele>
        <time>2025-06-11T09:28:15.000Z</time>
      </trkpt>
      <trkpt lat="43.78083" lon="6.69905">
        <ele>1493</ele>
        <time>2025-06-11T09:28:39.000Z</time>
      </trkpt>
      <trkpt lat="43.78083" lon="6.69937">
        <ele>1493</ele>
        <time>2025-06-11T09:29:03.000Z</time>
      </trkpt>
      <trkpt lat="43.78088" lon="6.69967">
        <ele>1494</ele>
        <time>2025-06-11T09:29:33.000Z</time>
      </trkpt>
      <trkpt lat="43.78097" lon="6.69995">
        <ele>1495</ele>
        <time>2025-06-11T09:29:57.000Z</time>
      </trkpt>
      <trkpt lat="43.78098" lon="6.70026">
        <ele>1497</ele>
        <time>2025-06-11T09:31:06.000Z</time>
      </trkpt>
      <trkpt lat="43.781" lon="6.70059">
        <ele>1499</ele>
        <time>2025-06-11T09:33:33.000Z</time>
      </trkpt>
      <trkpt lat="43.78102" lon="6.70091">
        <ele>1501</ele>
        <time>2025-06-11T09:34:00.000Z</time>
      </trkpt>
      <trkpt lat="43.78103" lon="6.70124">
        <ele>1503</ele>
        <time>2025-06-11T09:34:30.000Z</time>
      </trkpt>
      <trkpt lat="43.78109" lon="6.70155">
        <ele>1505</ele>
        <time>2025-06-11T09:34:57.000Z</time>
      </trkpt>
      <trkpt lat="43.78118" lon="6.70187">
        <ele>1506</ele>
        <time>2025-06-11T09:35:30.000Z</time>
      </trkpt>
      <trkpt lat="43.78123" lon="6.7022">
        <ele>1506</ele>
        <time>2025-06-11T09:36:06.000Z</time>
      </trkpt>
      <trkpt lat="43.78127" lon="6.70251">
        <ele>1506</ele>
        <time>2025-06-11T09:36:33.000Z</time>
      </trkpt>
      <trkpt lat="43.78141" lon="6.70276">
        <ele>1507</ele>
        <time>2025-06-11T09:37:06.000Z</time>
      </trkpt>
      <trkpt lat="43.7815" lon="6.70306">
        <ele>1508</ele>
        <time>2025-06-11T09:37:27.000Z</time>
      </trkpt>
      <trkpt lat="43.78156" lon="6.7034">
        <ele>1509</ele>
        <time>2025-06-11T09:37:51.000Z</time>
      </trkpt>
      <trkpt lat="43.78159" lon="6.70373">
        <ele>1511</ele>
        <time>2025-06-11T09:38:18.000Z</time>
      </trkpt>
      <trkpt lat="43.78161" lon="6.70405">
        <ele>1513</ele>
        <time>2025-06-11T09:38:39.000Z</time>
      </trkpt>
      <trkpt lat="43.78164" lon="6.70439">
        <ele>1515</ele>
        <time>2025-06-11T09:39:03.000Z</time>
      </trkpt>
      <trkpt lat="43.7816" lon="6.7047">
        <ele>1517</ele>
        <time>2025-06-11T09:39:30.000Z</time>
      </trkpt>
      <trkpt lat="43.78147" lon="6.70496">
        <ele>1519</ele>
        <time>2025-06-11T09:40:36.000Z</time>
      </trkpt>
      <trkpt lat="43.78144" lon="6.70527">
        <ele>1520</ele>
        <time>2025-06-11T09:41:09.000Z</time>
      </trkpt>
      <trkpt lat="43.78148" lon="6.70559">
        <ele>1521</ele>
        <time>2025-06-11T09:41:48.000Z</time>
      </trkpt>
      <trkpt lat="43.78149" lon="6.70591">
        <ele>1522</ele>
        <time>2025-06-11T09:42:15.000Z</time>
      </trkpt>
      <trkpt lat="43.78154" lon="6.70625">
        <ele>1523</ele>
        <time>2025-06-11T09:42:39.000Z</time>
      </trkpt>
      <trkpt lat="43.78158" lon="6.70657">
        <ele>1524</ele>
        <time>2025-06-11T09:45:09.000Z</time>
      </trkpt>
      <trkpt lat="43.78156" lon="6.70689">
        <ele>1524</ele>
        <time>2025-06-11T09:45:45.000Z</time>
      </trkpt>
      <trkpt lat="43.78154" lon="6.7072">
        <ele>1525</ele>
        <time>2025-06-11T09:46:12.000Z</time>
      </trkpt>
      <trkpt lat="43.78158" lon="6.70752">
        <ele>1526</ele>
        <time>2025-06-11T09:46:45.000Z</time>
      </trkpt>
      <trkpt lat="43.78163" lon="6.70783">
        <ele>1528</ele>
        <time>2025-06-11T09:47:12.000Z</time>
      </trkpt>
      <trkpt lat="43.78165" lon="6.70812">
        <ele>1530</ele>
        <time>2025-06-11T09:47:36.000Z</time>
      </trkpt>
      <trkpt lat="43.78153" lon="6.70836">
        <ele>1533</ele>
        <time>2025-06-11T09:48:18.000Z</time>
      </trkpt>
      <trkpt lat="43.78147" lon="6.70865">
        <ele>1536</ele>
        <time>2025-06-11T09:48:45.000Z</time>
      </trkpt>
      <trkpt lat="43.78149" lon="6.70895">
        <ele>1541</ele>
        <time>2025-06-11T09:49:18.000Z</time>
      </trkpt>
      <trkpt lat="43.78134" lon="6.70917">
        <ele>1546</ele>
        <time>2025-06-11T09:49:57.000Z</time>
      </trkpt>
      <trkpt lat="43.78115" lon="6.70932">
        <ele>1550</ele>
        <time>2025-06-11T09:51:03.000Z</time>
      </trkpt>
      <trkpt lat="43.78094" lon="6.70936">
        <ele>1553</ele>
        <time>2025-06-11T09:52:48.000Z</time>
      </trkpt>
      <trkpt lat="43.78076" lon="6.70951">
        <ele>1556</ele>
        <time>2025-06-11T09:53:18.000Z</time>
      </trkpt>
      <trkpt lat="43.78072" lon="6.70981">
        <ele>1559</ele>
        <time>2025-06-11T09:57:12.000Z</time>
      </trkpt>
      <trkpt lat="43.78071" lon="6.71012">
        <ele>1562</ele>
        <time>2025-06-11T09:57:42.000Z</time>
      </trkpt>
      <trkpt lat="43.78062" lon="6.71038">
        <ele>1565</ele>
        <time>2025-06-11T09:58:33.000Z</time>
      </trkpt>
      <trkpt lat="43.78069" lon="6.71067">
        <ele>1568</ele>
        <time>2025-06-11T09:58:57.000Z</time>
      </trkpt>
      <trkpt lat="43.78073" lon="6.71097">
        <ele>1570</ele>
        <time>2025-06-11T09:59:27.000Z</time>
      </trkpt>
      <trkpt lat="43.78081" lon="6.71129">
        <ele>1573</ele>
        <time>2025-06-11T09:59:54.000Z</time>
      </trkpt>
      <trkpt lat="43.78089" lon="6.7116">
        <ele>1578</ele>
        <time>2025-06-11T10:00:21.000Z</time>
      </trkpt>
      <trkpt lat="43.78093" lon="6.71191">
        <ele>1585</ele>
        <time>2025-06-11T10:00:54.000Z</time>
      </trkpt>
      <trkpt lat="43.78098" lon="6.71222">
        <ele>1592</ele>
        <time>2025-06-11T10:01:30.000Z</time>
      </trkpt>
      <trkpt lat="43.78105" lon="6.71252">
        <ele>1599</ele>
        <time>2025-06-11T10:02:27.000Z</time>
      </trkpt>
      <trkpt lat="43.78107" lon="6.71284">
        <ele>1607</ele>
        <time>2025-06-11T10:03:27.000Z</time>
      </trkpt>
      <trkpt lat="43.78099" lon="6.71313">
        <ele>1613</ele>
        <time>2025-06-11T10:07:57.000Z</time>
      </trkpt>
      <trkpt lat="43.78102" lon="6.71342">
        <ele>1620</ele>
        <time>2025-06-11T10:09:30.000Z</time>
      </trkpt>
      <trkpt lat="43.78093" lon="6.7137">
        <ele>1627</ele>
        <time>2025-06-11T10:11:03.000Z</time>
      </trkpt>
      <trkpt lat="43.78081" lon="6.71398">
        <ele>1633</ele>
        <time>2025-06-11T10:13:33.000Z</time>
      </trkpt>
      <trkpt lat="43.78078" lon="6.71426">
        <ele>1639</ele>
        <time>2025-06-11T10:16:39.000Z</time>
      </trkpt>
      <trkpt lat="43.78091" lon="6.71448">
        <ele>1643</ele>
        <time>2025-06-11T10:18:24.000Z</time>
      </trkpt>
      <trkpt lat="43.78093" lon="6.71478">
        <ele>1648</ele>
        <time>2025-06-11T10:19:12.000Z</time>
      </trkpt>
      <trkpt lat="43.78102" lon="6.71506">
        <ele>1654</ele>
        <time>2025-06-11T10:19:51.000Z</time>
      </trkpt>
      <trkpt lat="43.78107" lon="6.71535">
        <ele>1659</ele>
        <time>2025-06-11T10:21:09.000Z</time>
      </trkpt>
      <trkpt lat="43.78097" lon="6.71563">
        <ele>1665</ele>
        <time>2025-06-11T10:21:30.000Z</time>
      </trkpt>
      <trkpt lat="43.78096" lon="6.71594">
        <ele>1670</ele>
        <time>2025-06-11T10:22:51.000Z</time>
      </trkpt>
      <trkpt lat="43.78105" lon="6.71622">
        <ele>1674</ele>
        <time>2025-06-11T10:23:42.000Z</time>
      </trkpt>
      <trkpt lat="43.78106" lon="6.71652">
        <ele>1678</ele>
        <time>2025-06-11T10:25:03.000Z</time>
      </trkpt>
      <trkpt lat="43.7811" lon="6.71684">
        <ele>1681</ele>
        <time>2025-06-11T10:25:45.000Z</time>
      </trkpt>
      <trkpt lat="43.78106" lon="6.71713">
        <ele>1682</ele>
        <time>2025-06-11T10:26:18.000Z</time>
      </trkpt>
      <trkpt lat="43.78115" lon="6.71741">
        <ele>1681</ele>
        <time>2025-06-11T10:27:03.000Z</time>
      </trkpt>
      <trkpt lat="43.7812" lon="6.71771">
        <ele>1680</ele>
        <time>2025-06-11T10:28:12.000Z</time>
      </trkpt>
      <trkpt lat="43.78126" lon="6.71801">
        <ele>1677</ele>
        <time>2025-06-11T11:21:21.000Z</time>
      </trkpt>
      <trkpt lat="43.78128" lon="6.7183">
        <ele>1675</ele>
        <time>2025-06-11T11:22:57.000Z</time>
      </trkpt>
      <trkpt lat="43.78143" lon="6.71847">
        <ele>1672</ele>
        <time>2025-06-11T11:24:12.000Z</time>
      </trkpt>
      <trkpt lat="43.78143" lon="6.71876">
        <ele>1668</ele>
        <time>2025-06-11T11:24:54.000Z</time>
      </trkpt>
      <trkpt lat="43.78153" lon="6.71905">
        <ele>1665</ele>
        <time>2025-06-11T11:25:27.000Z</time>
      </trkpt>
      <trkpt lat="43.78168" lon="6.71929">
        <ele>1660</ele>
        <time>2025-06-11T11:26:24.000Z</time>
      </trkpt>
      <trkpt lat="43.7817" lon="6.7196">
        <ele>1654</ele>
        <time>2025-06-11T11:26:57.000Z</time>
      </trkpt>
      <trkpt lat="43.78165" lon="6.71993">
        <ele>1648</ele>
        <time>2025-06-11T11:27:27.000Z</time>
      </trkpt>
      <trkpt lat="43.78155" lon="6.72019">
        <ele>1640</ele>
        <time>2025-06-11T11:28:00.000Z</time>
      </trkpt>
      <trkpt lat="43.78159" lon="6.72048">
        <ele>1632</ele>
        <time>2025-06-11T11:31:30.000Z</time>
      </trkpt>
      <trkpt lat="43.78157" lon="6.72078">
        <ele>1624</ele>
        <time>2025-06-11T11:32:51.000Z</time>
      </trkpt>
      <trkpt lat="43.78151" lon="6.72107">
        <ele>1616</ele>
        <time>2025-06-11T11:33:42.000Z</time>
      </trkpt>
      <trkpt lat="43.7816" lon="6.72134">
        <ele>1609</ele>
        <time>2025-06-11T11:35:00.000Z</time>
      </trkpt>
      <trkpt lat="43.78178" lon="6.72154">
        <ele>1602</ele>
        <time>2025-06-11T11:35:45.000Z</time>
      </trkpt>
      <trkpt lat="43.78196" lon="6.72172">
        <ele>1597</ele>
        <time>2025-06-11T11:36:33.000Z</time>
      </trkpt>
      <trkpt lat="43.78218" lon="6.72178">
        <ele>1592</ele>
        <time>2025-06-11T11:37:24.000Z</time>
      </trkpt>
      <trkpt lat="43.7824" lon="6.72174">
        <ele>1587</ele>
        <time>2025-06-11T11:37:54.000Z</time>
      </trkpt>
      <trkpt lat="43.78263" lon="6.72171">
        <ele>1582</ele>
        <time>2025-06-11T11:38:21.000Z</time>
      </trkpt>
      <trkpt lat="43.78275" lon="6.72154">
        <ele>1576</ele>
        <time>2025-06-11T11:38:45.000Z</time>
      </trkpt>
      <trkpt lat="43.78288" lon="6.72171">
        <ele>1571</ele>
        <time>2025-06-11T11:39:18.000Z</time>
      </trkpt>
      <trkpt lat="43.78306" lon="6.72171">
        <ele>1565</ele>
        <time>2025-06-11T11:40:33.000Z</time>
      </trkpt>
      <trkpt lat="43.78309" lon="6.72192">
        <ele>1558</ele>
        <time>2025-06-11T11:41:54.000Z</time>
      </trkpt>
      <trkpt lat="43.78323" lon="6.72185">
        <ele>1552</ele>
        <time>2025-06-11T11:42:27.000Z</time>
      </trkpt>
      <trkpt lat="43.7833" lon="6.72206">
        <ele>1543</ele>
        <time>2025-06-11T11:42:54.000Z</time>
      </trkpt>
      <trkpt lat="43.7835" lon="6.72209">
        <ele>1535</ele>
        <time>2025-06-11T11:43:39.000Z</time>
      </trkpt>
      <trkpt lat="43.78373" lon="6.72205">
        <ele>1528</ele>
        <time>2025-06-11T11:44:39.000Z</time>
      </trkpt>
      <trkpt lat="43.78395" lon="6.72197">
        <ele>1521</ele>
        <time>2025-06-11T11:45:27.000Z</time>
      </trkpt>
      <trkpt lat="43.78415" lon="6.72185">
        <ele>1514</ele>
        <time>2025-06-11T11:46:27.000Z</time>
      </trkpt>
      <trkpt lat="43.78423" lon="6.72164">
        <ele>1508</ele>
        <time>2025-06-11T11:46:51.000Z</time>
      </trkpt>
      <trkpt lat="43.78428" lon="6.7219">
        <ele>1502</ele>
        <time>2025-06-11T11:47:27.000Z</time>
      </trkpt>
      <trkpt lat="43.78433" lon="6.72222">
        <ele>1496</ele>
        <time>2025-06-11T11:47:57.000Z</time>
      </trkpt>
      <trkpt lat="43.78436" lon="6.72253">
        <ele>1489</ele>
        <time>2025-06-11T11:48:24.000Z</time>
      </trkpt>
      <trkpt lat="43.78434" lon="6.72285">
        <ele>1482</ele>
        <time>2025-06-11T11:48:48.000Z</time>
      </trkpt>
      <trkpt lat="43.78431" lon="6.72316">
        <ele>1475</ele>
        <time>2025-06-11T11:49:15.000Z</time>
      </trkpt>
      <trkpt lat="43.78431" lon="6.72347">
        <ele>1468</ele>
        <time>2025-06-11T11:49:45.000Z</time>
      </trkpt>
      <trkpt lat="43.78447" lon="6.72361">
        <ele>1463</ele>
        <time>2025-06-11T11:50:48.000Z</time>
      </trkpt>
      <trkpt lat="43.78465" lon="6.72346">
        <ele>1456</ele>
        <time>2025-06-11T11:51:09.000Z</time>
      </trkpt>
      <trkpt lat="43.78485" lon="6.72328">
        <ele>1451</ele>
        <time>2025-06-11T11:51:48.000Z</time>
      </trkpt>
      <trkpt lat="43.78501" lon="6.72307">
        <ele>1444</ele>
        <time>2025-06-11T11:52:12.000Z</time>
      </trkpt>
      <trkpt lat="43.78514" lon="6.7228">
        <ele>1438</ele>
        <time>2025-06-11T11:52:42.000Z</time>
      </trkpt>
      <trkpt lat="43.78527" lon="6.72254">
        <ele>1431</ele>
        <time>2025-06-11T11:53:12.000Z</time>
      </trkpt>
      <trkpt lat="43.78538" lon="6.72227">
        <ele>1424</ele>
        <time>2025-06-11T11:53:33.000Z</time>
      </trkpt>
      <trkpt lat="43.78556" lon="6.72215">
        <ele>1417</ele>
        <time>2025-06-11T11:55:45.000Z</time>
      </trkpt>
      <trkpt lat="43.78571" lon="6.72236">
        <ele>1410</ele>
        <time>2025-06-11T11:56:42.000Z</time>
      </trkpt>
      <trkpt lat="43.78583" lon="6.72262">
        <ele>1404</ele>
        <time>2025-06-11T11:57:12.000Z</time>
      </trkpt>
      <trkpt lat="43.78585" lon="6.72292">
        <ele>1399</ele>
        <time>2025-06-11T11:57:36.000Z</time>
      </trkpt>
      <trkpt lat="43.78592" lon="6.72322">
        <ele>1393</ele>
        <time>2025-06-11T11:58:06.000Z</time>
      </trkpt>
      <trkpt lat="43.78596" lon="6.72355">
        <ele>1389</ele>
        <time>2025-06-11T11:58:30.000Z</time>
      </trkpt>
      <trkpt lat="43.78602" lon="6.72388">
        <ele>1385</ele>
        <time>2025-06-11T11:58:54.000Z</time>
      </trkpt>
      <trkpt lat="43.78607" lon="6.72421">
        <ele>1381</ele>
        <time>2025-06-11T11:59:18.000Z</time>
      </trkpt>
      <trkpt lat="43.78608" lon="6.72454">
        <ele>1377</ele>
        <time>2025-06-11T11:59:45.000Z</time>
      </trkpt>
      <trkpt lat="43.78603" lon="6.72487">
        <ele>1374</ele>
        <time>2025-06-11T12:00:06.000Z</time>
      </trkpt>
      <trkpt lat="43.78595" lon="6.72518">
        <ele>1370</ele>
        <time>2025-06-11T12:00:27.000Z</time>
      </trkpt>
      <trkpt lat="43.78584" lon="6.72548">
        <ele>1367</ele>
        <time>2025-06-11T12:00:51.000Z</time>
      </trkpt>
      <trkpt lat="43.78568" lon="6.72573">
        <ele>1364</ele>
        <time>2025-06-11T12:01:15.000Z</time>
      </trkpt>
      <trkpt lat="43.78551" lon="6.72596">
        <ele>1361</ele>
        <time>2025-06-11T12:01:36.000Z</time>
      </trkpt>
      <trkpt lat="43.7853" lon="6.72611">
        <ele>1357</ele>
        <time>2025-06-11T12:02:00.000Z</time>
      </trkpt>
      <trkpt lat="43.78513" lon="6.72635">
        <ele>1353</ele>
        <time>2025-06-11T12:02:18.000Z</time>
      </trkpt>
      <trkpt lat="43.78509" lon="6.72662">
        <ele>1348</ele>
        <time>2025-06-11T12:02:45.000Z</time>
      </trkpt>
      <trkpt lat="43.7853" lon="6.72669">
        <ele>1343</ele>
        <time>2025-06-11T12:03:06.000Z</time>
      </trkpt>
      <trkpt lat="43.78546" lon="6.7269">
        <ele>1337</ele>
        <time>2025-06-11T12:03:54.000Z</time>
      </trkpt>
      <trkpt lat="43.78557" lon="6.72716">
        <ele>1331</ele>
        <time>2025-06-11T12:04:27.000Z</time>
      </trkpt>
      <trkpt lat="43.78569" lon="6.72744">
        <ele>1324</ele>
        <time>2025-06-11T12:04:57.000Z</time>
      </trkpt>
      <trkpt lat="43.78575" lon="6.72775">
        <ele>1318</ele>
        <time>2025-06-11T12:05:18.000Z</time>
      </trkpt>
      <trkpt lat="43.78589" lon="6.72798">
        <ele>1313</ele>
        <time>2025-06-11T12:06:27.000Z</time>
      </trkpt>
      <trkpt lat="43.78599" lon="6.72827">
        <ele>1310</ele>
        <time>2025-06-11T12:07:12.000Z</time>
      </trkpt>
      <trkpt lat="43.78602" lon="6.72859">
        <ele>1307</ele>
        <time>2025-06-11T12:07:42.000Z</time>
      </trkpt>
      <trkpt lat="43.78589" lon="6.72881">
        <ele>1304</ele>
        <time>2025-06-11T12:08:15.000Z</time>
      </trkpt>
      <trkpt lat="43.78569" lon="6.72891">
        <ele>1301</ele>
        <time>2025-06-11T12:13:33.000Z</time>
      </trkpt>
      <trkpt lat="43.78559" lon="6.72918">
        <ele>1298</ele>
        <time>2025-06-11T12:13:54.000Z</time>
      </trkpt>
      <trkpt lat="43.78547" lon="6.72944">
        <ele>1295</ele>
        <time>2025-06-11T12:14:45.000Z</time>
      </trkpt>
      <trkpt lat="43.78534" lon="6.72973">
        <ele>1292</ele>
        <time>2025-06-11T12:15:09.000Z</time>
      </trkpt>
      <trkpt lat="43.7852" lon="6.72999">
        <ele>1289</ele>
        <time>2025-06-11T12:15:30.000Z</time>
      </trkpt>
      <trkpt lat="43.78523" lon="6.73026">
        <ele>1287</ele>
        <time>2025-06-11T12:15:54.000Z</time>
      </trkpt>
      <trkpt lat="43.78545" lon="6.73028">
        <ele>1285</ele>
        <time>2025-06-11T12:16:12.000Z</time>
      </trkpt>
      <trkpt lat="43.78568" lon="6.73034">
        <ele>1283</ele>
        <time>2025-06-11T12:16:36.000Z</time>
      </trkpt>
      <trkpt lat="43.78587" lon="6.73052">
        <ele>1280</ele>
        <time>2025-06-11T12:16:54.000Z</time>
      </trkpt>
      <trkpt lat="43.78607" lon="6.7307">
        <ele>1277</ele>
        <time>2025-06-11T12:17:12.000Z</time>
      </trkpt>
      <trkpt lat="43.78629" lon="6.73079">
        <ele>1274</ele>
        <time>2025-06-11T12:17:36.000Z</time>
      </trkpt>
      <trkpt lat="43.78648" lon="6.73098">
        <ele>1271</ele>
        <time>2025-06-11T12:18:00.000Z</time>
      </trkpt>
      <trkpt lat="43.78655" lon="6.73127">
        <ele>1268</ele>
        <time>2025-06-11T12:18:21.000Z</time>
      </trkpt>
      <trkpt lat="43.78653" lon="6.73159">
        <ele>1265</ele>
        <time>2025-06-11T12:18:42.000Z</time>
      </trkpt>
      <trkpt lat="43.78655" lon="6.73192">
        <ele>1263</ele>
        <time>2025-06-11T12:19:03.000Z</time>
      </trkpt>
      <trkpt lat="43.78662" lon="6.73225">
        <ele>1260</ele>
        <time>2025-06-11T12:19:24.000Z</time>
      </trkpt>
      <trkpt lat="43.78667" lon="6.73259">
        <ele>1258</ele>
        <time>2025-06-11T12:19:42.000Z</time>
      </trkpt>
      <trkpt lat="43.78675" lon="6.73288">
        <ele>1255</ele>
        <time>2025-06-11T12:20:03.000Z</time>
      </trkpt>
      <trkpt lat="43.7869" lon="6.7331">
        <ele>1252</ele>
        <time>2025-06-11T12:20:39.000Z</time>
      </trkpt>
      <trkpt lat="43.78703" lon="6.73335">
        <ele>1249</ele>
        <time>2025-06-11T12:21:00.000Z</time>
      </trkpt>
      <trkpt lat="43.78712" lon="6.73356">
        <ele>1247</ele>
        <time>2025-06-11T12:21:24.000Z</time>
      </trkpt>
      <trkpt lat="43.78693" lon="6.73362">
        <ele>1245</ele>
        <time>2025-06-11T12:22:03.000Z</time>
      </trkpt>
      <trkpt lat="43.78675" lon="6.73361">
        <ele>1243</ele>
        <time>2025-06-11T12:22:27.000Z</time>
      </trkpt>
      <trkpt lat="43.78685" lon="6.73385">
        <ele>1240</ele>
        <time>2025-06-11T12:23:24.000Z</time>
      </trkpt>
      <trkpt lat="43.78699" lon="6.73405">
        <ele>1236</ele>
        <time>2025-06-11T12:23:42.000Z</time>
      </trkpt>
      <trkpt lat="43.78682" lon="6.73418">
        <ele>1232</ele>
        <time>2025-06-11T12:24:24.000Z</time>
      </trkpt>
      <trkpt lat="43.78659" lon="6.73415">
        <ele>1229</ele>
        <time>2025-06-11T12:24:48.000Z</time>
      </trkpt>
      <trkpt lat="43.78641" lon="6.734">
        <ele>1225</ele>
        <time>2025-06-11T12:25:09.000Z</time>
      </trkpt>
      <trkpt lat="43.78621" lon="6.73403">
        <ele>1221</ele>
        <time>2025-06-11T12:25:57.000Z</time>
      </trkpt>
      <trkpt lat="43.78601" lon="6.7339">
        <ele>1218</ele>
        <time>2025-06-11T12:27:06.000Z</time>
      </trkpt>
      <trkpt lat="43.78586" lon="6.73367">
        <ele>1215</ele>
        <time>2025-06-11T12:27:39.000Z</time>
      </trkpt>
      <trkpt lat="43.78569" lon="6.73345">
        <ele>1212</ele>
        <time>2025-06-11T12:28:24.000Z</time>
      </trkpt>
      <trkpt lat="43.78549" lon="6.73325">
        <ele>1209</ele>
        <time>2025-06-11T12:28:51.000Z</time>
      </trkpt>
      <trkpt lat="43.78529" lon="6.73309">
        <ele>1207</ele>
        <time>2025-06-11T12:29:12.000Z</time>
      </trkpt>
      <trkpt lat="43.78509" lon="6.73294">
        <ele>1204</ele>
        <time>2025-06-11T12:29:33.000Z</time>
      </trkpt>
      <trkpt lat="43.78489" lon="6.7328">
        <ele>1202</ele>
        <time>2025-06-11T12:29:54.000Z</time>
      </trkpt>
      <trkpt lat="43.78467" lon="6.73271">
        <ele>1200</ele>
        <time>2025-06-11T12:30:15.000Z</time>
      </trkpt>
      <trkpt lat="43.78446" lon="6.73263">
        <ele>1197</ele>
        <time>2025-06-11T12:30:33.000Z</time>
      </trkpt>
      <trkpt lat="43.78422" lon="6.73261">
        <ele>1195</ele>
        <time>2025-06-11T12:30:54.000Z</time>
      </trkpt>
      <trkpt lat="43.78399" lon="6.73255">
        <ele>1193</ele>
        <time>2025-06-11T12:31:15.000Z</time>
      </trkpt>
      <trkpt lat="43.78379" lon="6.7324">
        <ele>1191</ele>
        <time>2025-06-11T12:31:36.000Z</time>
      </trkpt>
      <trkpt lat="43.78359" lon="6.73222">
        <ele>1190</ele>
        <time>2025-06-11T12:31:57.000Z</time>
      </trkpt>
      <trkpt lat="43.78337" lon="6.73205">
        <ele>1189</ele>
        <time>2025-06-11T12:32:18.000Z</time>
      </trkpt>
      <trkpt lat="43.78317" lon="6.73188">
        <ele>1189</ele>
        <time>2025-06-11T12:32:36.000Z</time>
      </trkpt>
      <trkpt lat="43.78298" lon="6.7317">
        <ele>1188</ele>
        <time>2025-06-11T12:32:54.000Z</time>
      </trkpt>
      <trkpt lat="43.78278" lon="6.73151">
        <ele>1188</ele>
        <time>2025-06-11T12:33:15.000Z</time>
      </trkpt>
      <trkpt lat="43.78256" lon="6.73139">
        <ele>1188</ele>
        <time>2025-06-11T12:33:33.000Z</time>
      </trkpt>
      <trkpt lat="43.78233" lon="6.73129">
        <ele>1187</ele>
        <time>2025-06-11T12:33:51.000Z</time>
      </trkpt>
      <trkpt lat="43.78209" lon="6.73125">
        <ele>1187</ele>
        <time>2025-06-11T12:34:12.000Z</time>
      </trkpt>
      <trkpt lat="43.78187" lon="6.73111">
        <ele>1187</ele>
        <time>2025-06-11T12:34:33.000Z</time>
      </trkpt>
      <trkpt lat="43.78167" lon="6.73096">
        <ele>1187</ele>
        <time>2025-06-11T12:34:51.000Z</time>
      </trkpt>
      <trkpt lat="43.78145" lon="6.73081">
        <ele>1188</ele>
        <time>2025-06-11T12:35:12.000Z</time>
      </trkpt>
      <trkpt lat="43.78124" lon="6.73068">
        <ele>1189</ele>
        <time>2025-06-11T12:35:30.000Z</time>
      </trkpt>
      <trkpt lat="43.78104" lon="6.73055">
        <ele>1189</ele>
        <time>2025-06-11T12:35:51.000Z</time>
      </trkpt>
      <trkpt lat="43.78082" lon="6.73041">
        <ele>1190</ele>
        <time>2025-06-11T12:36:12.000Z</time>
      </trkpt>
      <trkpt lat="43.7806" lon="6.73031">
        <ele>1192</ele>
        <time>2025-06-11T12:36:30.000Z</time>
      </trkpt>
      <trkpt lat="43.78037" lon="6.73026">
        <ele>1194</ele>
        <time>2025-06-11T12:36:48.000Z</time>
      </trkpt>
      <trkpt lat="43.78014" lon="6.73022">
        <ele>1196</ele>
        <time>2025-06-11T12:37:06.000Z</time>
      </trkpt>
      <trkpt lat="43.77991" lon="6.7302">
        <ele>1198</ele>
        <time>2025-06-11T12:37:27.000Z</time>
      </trkpt>
      <trkpt lat="43.77968" lon="6.73011">
        <ele>1200</ele>
        <time>2025-06-11T12:45:15.000Z</time>
      </trkpt>
      <trkpt lat="43.77947" lon="6.72998">
        <ele>1201</ele>
        <time>2025-06-11T12:45:36.000Z</time>
      </trkpt>
      <trkpt lat="43.77925" lon="6.72989">
        <ele>1202</ele>
        <time>2025-06-11T12:45:57.000Z</time>
      </trkpt>
      <trkpt lat="43.77903" lon="6.72987">
        <ele>1203</ele>
        <time>2025-06-11T12:46:15.000Z</time>
      </trkpt>
      <trkpt lat="43.77886" lon="6.72989">
        <ele>1204</ele>
        <time>2025-06-11T12:46:39.000Z</time>
      </trkpt>
      <trkpt lat="43.77897" lon="6.72965">
        <ele>1205</ele>
        <time>2025-06-11T12:47:36.000Z</time>
      </trkpt>
      <trkpt lat="43.77882" lon="6.72972">
        <ele>1206</ele>
        <time>2025-06-11T12:47:51.000Z</time>
      </trkpt>
      <trkpt lat="43.77857" lon="6.72952">
        <ele>1206</ele>
        <time>2025-06-11T12:51:13.000Z</time>
      </trkpt>
      <trkpt lat="43.7787" lon="6.72944">
        <ele>1206</ele>
        <time>2025-06-11T12:51:18.000Z</time>
      </trkpt>
      <trkpt lat="43.77868" lon="6.72917">
        <ele>1207</ele>
        <time>2025-06-11T12:51:54.000Z</time>
      </trkpt>
      <trkpt lat="43.77862" lon="6.72885">
        <ele>1209</ele>
        <time>2025-06-11T12:59:48.000Z</time>
      </trkpt>
      <trkpt lat="43.77854" lon="6.72855">
        <ele>1211</ele>
        <time>2025-06-11T13:00:09.000Z</time>
      </trkpt>
      <trkpt lat="43.77836" lon="6.72835">
        <ele>1212</ele>
        <time>2025-06-11T13:00:33.000Z</time>
      </trkpt>
      <trkpt lat="43.77817" lon="6.72814">
        <ele>1213</ele>
        <time>2025-06-11T13:00:51.000Z</time>
      </trkpt>
      <trkpt lat="43.77803" lon="6.72789">
        <ele>1214</ele>
        <time>2025-06-11T13:01:15.000Z</time>
      </trkpt>
      <trkpt lat="43.77786" lon="6.72767">
        <ele>1215</ele>
        <time>2025-06-11T13:01:39.000Z</time>
      </trkpt>
      <trkpt lat="43.77767" lon="6.72749">
        <ele>1216</ele>
        <time>2025-06-11T13:01:57.000Z</time>
      </trkpt>
      <trkpt lat="43.77743" lon="6.72739">
        <ele>1218</ele>
        <time>2025-06-11T13:02:18.000Z</time>
      </trkpt>
      <trkpt lat="43.7772" lon="6.7273">
        <ele>1219</ele>
        <time>2025-06-11T13:02:36.000Z</time>
      </trkpt>
      <trkpt lat="43.77694" lon="6.72721">
        <ele>1220</ele>
        <time>2025-06-11T13:03:00.000Z</time>
      </trkpt>
      <trkpt lat="43.77673" lon="6.727">
        <ele>1221</ele>
        <time>2025-06-11T13:03:21.000Z</time>
      </trkpt>
      <trkpt lat="43.77657" lon="6.72677">
        <ele>1221</ele>
        <time>2025-06-11T13:03:36.000Z</time>
      </trkpt>
      <trkpt lat="43.77641" lon="6.72653">
        <ele>1222</ele>
        <time>2025-06-11T13:03:54.000Z</time>
      </trkpt>
      <trkpt lat="43.77627" lon="6.72628">
        <ele>1223</ele>
        <time>2025-06-11T13:04:09.000Z</time>
      </trkpt>
      <trkpt lat="43.77611" lon="6.72602">
        <ele>1223</ele>
        <time>2025-06-11T13:04:27.000Z</time>
      </trkpt>
      <trkpt lat="43.77596" lon="6.72577">
        <ele>1224</ele>
        <time>2025-06-11T13:04:45.000Z</time>
      </trkpt>
      <trkpt lat="43.77578" lon="6.72556">
        <ele>1224</ele>
        <time>2025-06-11T13:05:03.000Z</time>
      </trkpt>
      <trkpt lat="43.77558" lon="6.72537">
        <ele>1223</ele>
        <time>2025-06-11T13:05:21.000Z</time>
      </trkpt>
      <trkpt lat="43.77539" lon="6.72516">
        <ele>1223</ele>
        <time>2025-06-11T13:05:39.000Z</time>
      </trkpt>
      <trkpt lat="43.77524" lon="6.72494">
        <ele>1223</ele>
        <time>2025-06-11T13:06:00.000Z</time>
      </trkpt>
      <trkpt lat="43.77517" lon="6.72465">
        <ele>1223</ele>
        <time>2025-06-11T13:06:45.000Z</time>
      </trkpt>
      <trkpt lat="43.77507" lon="6.72436">
        <ele>1223</ele>
        <time>2025-06-11T13:07:09.000Z</time>
      </trkpt>
      <trkpt lat="43.77496" lon="6.72408">
        <ele>1223</ele>
        <time>2025-06-11T13:07:30.000Z</time>
      </trkpt>
      <trkpt lat="43.77483" lon="6.72382">
        <ele>1223</ele>
        <time>2025-06-11T13:07:48.000Z</time>
      </trkpt>
      <trkpt lat="43.77472" lon="6.72354">
        <ele>1223</ele>
        <time>2025-06-11T13:08:06.000Z</time>
      </trkpt>
      <trkpt lat="43.77466" lon="6.72325">
        <ele>1223</ele>
        <time>2025-06-11T13:08:24.000Z</time>
      </trkpt>
      <trkpt lat="43.77473" lon="6.72297">
        <ele>1224</ele>
        <time>2025-06-11T13:08:45.000Z</time>
      </trkpt>
      <trkpt lat="43.7749" lon="6.72277">
        <ele>1225</ele>
        <time>2025-06-11T13:09:21.000Z</time>
      </trkpt>
      <trkpt lat="43.77501" lon="6.72252">
        <ele>1227</ele>
        <time>2025-06-11T13:09:42.000Z</time>
      </trkpt>
      <trkpt lat="43.77491" lon="6.72225">
        <ele>1229</ele>
        <time>2025-06-11T13:09:57.000Z</time>
      </trkpt>
      <trkpt lat="43.77476" lon="6.72199">
        <ele>1230</ele>
        <time>2025-06-11T13:10:21.000Z</time>
      </trkpt>
      <trkpt lat="43.77462" lon="6.72174">
        <ele>1231</ele>
        <time>2025-06-11T13:10:42.000Z</time>
      </trkpt>
      <trkpt lat="43.77458" lon="6.72144">
        <ele>1232</ele>
        <time>2025-06-11T13:11:06.000Z</time>
      </trkpt>
      <trkpt lat="43.77454" lon="6.72111">
        <ele>1232</ele>
        <time>2025-06-11T13:11:24.000Z</time>
      </trkpt>
      <trkpt lat="43.7745" lon="6.7208">
        <ele>1232</ele>
        <time>2025-06-11T13:11:42.000Z</time>
      </trkpt>
      <trkpt lat="43.77447" lon="6.72048">
        <ele>1232</ele>
        <time>2025-06-11T13:12:00.000Z</time>
      </trkpt>
      <trkpt lat="43.77442" lon="6.72018">
        <ele>1232</ele>
        <time>2025-06-11T13:12:18.000Z</time>
      </trkpt>
      <trkpt lat="43.77436" lon="6.71986">
        <ele>1231</ele>
        <time>2025-06-11T13:12:42.000Z</time>
      </trkpt>
      <trkpt lat="43.77432" lon="6.71952">
        <ele>1231</ele>
        <time>2025-06-11T13:13:00.000Z</time>
      </trkpt>
      <trkpt lat="43.77429" lon="6.71917">
        <ele>1231</ele>
        <time>2025-06-11T13:13:18.000Z</time>
      </trkpt>
      <trkpt lat="43.77422" lon="6.71884">
        <ele>1231</ele>
        <time>2025-06-11T13:13:39.000Z</time>
      </trkpt>
      <trkpt lat="43.77416" lon="6.71851">
        <ele>1232</ele>
        <time>2025-06-11T13:13:57.000Z</time>
      </trkpt>
      <trkpt lat="43.77415" lon="6.71816">
        <ele>1231</ele>
        <time>2025-06-11T13:14:18.000Z</time>
      </trkpt>
      <trkpt lat="43.77414" lon="6.71784">
        <ele>1230</ele>
        <time>2025-06-11T13:14:36.000Z</time>
      </trkpt>
      <trkpt lat="43.77412" lon="6.71752">
        <ele>1229</ele>
        <time>2025-06-11T13:14:54.000Z</time>
      </trkpt>
      <trkpt lat="43.77417" lon="6.7172">
        <ele>1228</ele>
        <time>2025-06-11T13:15:12.000Z</time>
      </trkpt>
      <trkpt lat="43.77418" lon="6.71686">
        <ele>1227</ele>
        <time>2025-06-11T13:15:33.000Z</time>
      </trkpt>
      <trkpt lat="43.77421" lon="6.71655">
        <ele>1227</ele>
        <time>2025-06-11T13:15:54.000Z</time>
      </trkpt>
      <trkpt lat="43.77426" lon="6.71622">
        <ele>1226</ele>
        <time>2025-06-11T13:16:33.000Z</time>
      </trkpt>
      <trkpt lat="43.77427" lon="6.71589">
        <ele>1225</ele>
        <time>2025-06-11T13:16:51.000Z</time>
      </trkpt>
      <trkpt lat="43.77431" lon="6.71554">
        <ele>1224</ele>
        <time>2025-06-11T13:17:12.000Z</time>
      </trkpt>
      <trkpt lat="43.77435" lon="6.71517">
        <ele>1222</ele>
        <time>2025-06-11T13:17:33.000Z</time>
      </trkpt>
      <trkpt lat="43.77435" lon="6.71481">
        <ele>1221</ele>
        <time>2025-06-11T13:17:54.000Z</time>
      </trkpt>
      <trkpt lat="43.77433" lon="6.71448">
        <ele>1220</ele>
        <time>2025-06-11T13:18:12.000Z</time>
      </trkpt>
      <trkpt lat="43.77441" lon="6.7142">
        <ele>1218</ele>
        <time>2025-06-11T13:18:33.000Z</time>
      </trkpt>
      <trkpt lat="43.77446" lon="6.71389">
        <ele>1217</ele>
        <time>2025-06-11T13:18:54.000Z</time>
      </trkpt>
      <trkpt lat="43.77447" lon="6.71357">
        <ele>1216</ele>
        <time>2025-06-11T13:19:21.000Z</time>
      </trkpt>
      <trkpt lat="43.77448" lon="6.71326">
        <ele>1214</ele>
        <time>2025-06-11T13:19:39.000Z</time>
      </trkpt>
      <trkpt lat="43.77448" lon="6.71294">
        <ele>1212</ele>
        <time>2025-06-11T13:19:57.000Z</time>
      </trkpt>
      <trkpt lat="43.77451" lon="6.71262">
        <ele>1210</ele>
        <time>2025-06-11T13:20:18.000Z</time>
      </trkpt>
      <trkpt lat="43.77449" lon="6.71229">
        <ele>1208</ele>
        <time>2025-06-11T13:20:36.000Z</time>
      </trkpt>
      <trkpt lat="43.77442" lon="6.71198">
        <ele>1206</ele>
        <time>2025-06-11T13:20:54.000Z</time>
      </trkpt>
      <trkpt lat="43.77439" lon="6.71166">
        <ele>1205</ele>
        <time>2025-06-11T13:21:12.000Z</time>
      </trkpt>
      <trkpt lat="43.77433" lon="6.71134">
        <ele>1203</ele>
        <time>2025-06-11T13:21:30.000Z</time>
      </trkpt>
      <trkpt lat="43.77429" lon="6.71103">
        <ele>1201</ele>
        <time>2025-06-11T13:21:51.000Z</time>
      </trkpt>
      <trkpt lat="43.77425" lon="6.71072">
        <ele>1200</ele>
        <time>2025-06-11T13:22:09.000Z</time>
      </trkpt>
      <trkpt lat="43.77422" lon="6.7104">
        <ele>1198</ele>
        <time>2025-06-11T13:22:27.000Z</time>
      </trkpt>
      <trkpt lat="43.77418" lon="6.71008">
        <ele>1197</ele>
        <time>2025-06-11T13:22:45.000Z</time>
      </trkpt>
      <trkpt lat="43.77413" lon="6.70977">
        <ele>1195</ele>
        <time>2025-06-11T13:23:03.000Z</time>
      </trkpt>
      <trkpt lat="43.77411" lon="6.70944">
        <ele>1193</ele>
        <time>2025-06-11T13:23:21.000Z</time>
      </trkpt>
      <trkpt lat="43.77407" lon="6.70911">
        <ele>1191</ele>
        <time>2025-06-11T13:23:39.000Z</time>
      </trkpt>
      <trkpt lat="43.77407" lon="6.7088">
        <ele>1189</ele>
        <time>2025-06-11T13:23:57.000Z</time>
      </trkpt>
      <trkpt lat="43.7741" lon="6.70849">
        <ele>1187</ele>
        <time>2025-06-11T13:24:15.000Z</time>
      </trkpt>
      <trkpt lat="43.77422" lon="6.70822">
        <ele>1186</ele>
        <time>2025-06-11T13:24:33.000Z</time>
      </trkpt>
      <trkpt lat="43.77429" lon="6.70789">
        <ele>1184</ele>
        <time>2025-06-11T13:24:54.000Z</time>
      </trkpt>
      <trkpt lat="43.77427" lon="6.70754">
        <ele>1182</ele>
        <time>2025-06-11T13:25:12.000Z</time>
      </trkpt>
      <trkpt lat="43.7742" lon="6.70725">
        <ele>1181</ele>
        <time>2025-06-11T13:25:30.000Z</time>
      </trkpt>
      <trkpt lat="43.77419" lon="6.70688">
        <ele>1180</ele>
        <time>2025-06-11T13:25:51.000Z</time>
      </trkpt>
      <trkpt lat="43.7742" lon="6.70656">
        <ele>1179</ele>
        <time>2025-06-11T13:26:12.000Z</time>
      </trkpt>
      <trkpt lat="43.77424" lon="6.70625">
        <ele>1178</ele>
        <time>2025-06-11T13:26:33.000Z</time>
      </trkpt>
      <trkpt lat="43.7743" lon="6.70593">
        <ele>1177</ele>
        <time>2025-06-11T13:26:51.000Z</time>
      </trkpt>
      <trkpt lat="43.77433" lon="6.70562">
        <ele>1176</ele>
        <time>2025-06-11T13:27:09.000Z</time>
      </trkpt>
      <trkpt lat="43.77435" lon="6.70529">
        <ele>1177</ele>
        <time>2025-06-11T13:27:27.000Z</time>
      </trkpt>
      <trkpt lat="43.77437" lon="6.70495">
        <ele>1173</ele>
        <time>2025-06-11T13:27:45.000Z</time>
      </trkpt>
      <trkpt lat="43.77443" lon="6.70465">
        <ele>1172</ele>
        <time>2025-06-11T13:28:30.000Z</time>
      </trkpt>
      <trkpt lat="43.77434" lon="6.70435">
        <ele>1175</ele>
        <time>2025-06-11T13:29:12.000Z</time>
      </trkpt>
    </trkseg>
  </trk>
</gpx>